sensor_id;sensor_type;location;lat;lon;timestamp;P1;durP1;ratioP1;P2;durP2;ratioP2
1533;SDS011;760;48.822;9.304;2023-01-29T05:06:09;4.53;;;3.70;;
1533;SDS011;760;48.822;9.304;2023-01-29T05:08:36;6.55;;;3.08;;
1533;SDS011;760;48.822;9.304;2023-01-29T05:11:03;4.95;;;3.63;;
1533;SDS011;760;48.822;9.304;2023-01-29T05:13:29;3.90;;;3.17;;
1533;SDS011;760;48.822;9.304;2023-01-29T05:15:59;4.53;;;4.10;;
1533;SDS011;760;48.822;9.304;2023-01-29T05:18:29;4.35;;;3.28;;
1533;SDS011;760;48.822;9.304;2023-01-29T05:20:56;4.05;;;3.65;;
1533;SDS011;760;48.822;9.304;2023-01-29T05:23:25;3.97;;;2.83;;
1533;SDS011;760;48.822;9.304;2023-01-29T05:25:50;2.90;;;2.27;;
1533;SDS011;760;48.822;9.304;2023-01-29T05:28:16;4.27;;;3.63;;
1533;SDS011;760;48.822;9.304;2023-01-29T05:30:43;5.45;;;4.47;;
1533;SDS011;760;48.822;9.304;2023-01-29T05:33:17;4.55;;;4.25;;
1533;SDS011;760;48.822;9.304;2023-01-29T05:35:44;5.45;;;4.68;;
1533;SDS011;760;48.822;9.304;2023-01-29T05:38:11;4.03;;;3.22;;
1533;SDS011;760;48.822;9.304;2023-01-29T05:40:37;7.13;;;3.97;;
1533;SDS011;760;48.822;9.304;2023-01-29T05:43:03;4.18;;;3.58;;
1533;SDS011;760;48.822;9.304;2023-01-29T05:45:29;4.90;;;3.72;;
1533;SDS011;760;48.822;9.304;2023-01-29T05:47:56;6.07;;;4.28;;
1533;SDS011;760;48.822;9.304;2023-01-29T05:50:22;5.45;;;3.55;;
1533;SDS011;760;48.822;9.304;2023-01-29T05:52:49;4.75;;;3.58;;
1533;SDS011;760;48.822;9.304;2023-01-29T05:55:19;3.33;;;3.03;;
1533;SDS011;760;48.822;9.304;2023-01-29T05:57:45;5.70;;;3.80;;
1533;SDS011;760;48.822;9.304;2023-01-29T06:00:10;4.37;;;3.53;;
1533;SDS011;760;48.822;9.304;2023-01-29T06:02:37;7.68;;;3.72;;
1533;SDS011;760;48.822;9.304;2023-01-29T06:05:02;5.00;;;4.50;;
1533;SDS011;760;48.822;9.304;2023-01-29T06:07:28;4.13;;;3.50;;
1533;SDS011;760;48.822;9.304;2023-01-29T06:09:54;3.70;;;3.37;;
1533;SDS011;760;48.822;9.304;2023-01-29T06:12:20;13.50;;;4.33;;
1533;SDS011;760;48.822;9.304;2023-01-29T06:14:45;2.70;;;2.50;;
1533;SDS011;760;48.822;9.304;2023-01-29T06:17:11;4.27;;;3.80;;
1533;SDS011;760;48.822;9.304;2023-01-29T06:19:36;6.20;;;3.33;;
1533;SDS011;760;48.822;9.304;2023-01-29T06:22:02;4.03;;;3.63;;
1533;SDS011;760;48.822;9.304;2023-01-29T06:24:28;5.33;;;3.47;;
1533;SDS011;760;48.822;9.304;2023-01-29T06:26:53;3.40;;;3.03;;
1533;SDS011;760;48.822;9.304;2023-01-29T06:29:19;4.70;;;4.13;;
1533;SDS011;760;48.822;9.304;2023-01-29T06:31:44;4.43;;;3.73;;
1533;SDS011;760;48.822;9.304;2023-01-29T06:34:10;4.50;;;4.00;;
1533;SDS011;760;48.822;9.304;2023-01-29T06:36:35;4.17;;;3.87;;
1533;SDS011;760;48.822;9.304;2023-01-29T06:39:01;5.87;;;3.90;;
1533;SDS011;760;48.822;9.304;2023-01-29T06:41:27;3.97;;;3.65;;
1533;SDS011;760;48.822;9.304;2023-01-29T06:43:53;3.47;;;2.80;;
1533;SDS011;760;48.822;9.304;2023-01-29T06:46:19;3.90;;;3.50;;
1533;SDS011;760;48.822;9.304;2023-01-29T06:48:45;6.17;;;3.23;;
1533;SDS011;760;48.822;9.304;2023-01-29T06:51:10;3.40;;;3.10;;
1533;SDS011;760;48.822;9.304;2023-01-29T06:53:37;4.00;;;3.07;;
1533;SDS011;760;48.822;9.304;2023-01-29T06:56:03;4.72;;;4.15;;
1533;SDS011;760;48.822;9.304;2023-01-29T06:58:30;7.95;;;4.25;;
1533;SDS011;760;48.822;9.304;2023-01-29T07:01:05;4.87;;;4.30;;
1533;SDS011;760;48.822;9.304;2023-01-29T07:03:32;3.47;;;3.17;;
1533;SDS011;760;48.822;9.304;2023-01-29T07:05:58;5.13;;;4.40;;
1533;SDS011;760;48.822;9.304;2023-01-29T07:08:23;5.30;;;4.70;;
1533;SDS011;760;48.822;9.304;2023-01-29T07:10:49;6.57;;;4.00;;
1533;SDS011;760;48.822;9.304;2023-01-29T07:13:14;4.30;;;3.90;;
1533;SDS011;760;48.822;9.304;2023-01-29T07:15:40;5.50;;;3.77;;
1533;SDS011;760;48.822;9.304;2023-01-29T07:18:07;4.18;;;3.30;;
1533;SDS011;760;48.822;9.304;2023-01-29T07:20:36;4.10;;;3.40;;
1533;SDS011;760;48.822;9.304;2023-01-29T07:23:07;6.20;;;4.45;;
1533;SDS011;760;48.822;9.304;2023-01-29T07:25:36;7.63;;;4.95;;
1533;SDS011;760;48.822;9.304;2023-01-29T07:28:02;6.03;;;3.73;;
1533;SDS011;760;48.822;9.304;2023-01-29T07:30:28;5.75;;;4.60;;
1533;SDS011;760;48.822;9.304;2023-01-29T07:32:54;4.60;;;4.22;;
1533;SDS011;760;48.822;9.304;2023-01-29T07:35:19;5.70;;;3.90;;
1533;SDS011;760;48.822;9.304;2023-01-29T07:37:49;4.47;;;3.97;;
1533;SDS011;760;48.822;9.304;2023-01-29T07:40:14;6.47;;;4.00;;
1533;SDS011;760;48.822;9.304;2023-01-29T07:42:40;3.23;;;2.93;;
1533;SDS011;760;48.822;9.304;2023-01-29T07:45:08;4.45;;;3.97;;
1533;SDS011;760;48.822;9.304;2023-01-29T07:47:35;8.05;;;3.30;;
1533;SDS011;760;48.822;9.304;2023-01-29T07:50:00;4.63;;;3.93;;
1533;SDS011;760;48.822;9.304;2023-01-29T07:52:28;4.13;;;3.53;;
1533;SDS011;760;48.822;9.304;2023-01-29T07:54:55;4.47;;;3.42;;
1533;SDS011;760;48.822;9.304;2023-01-29T07:57:20;5.13;;;3.80;;
1533;SDS011;760;48.822;9.304;2023-01-29T07:59:46;4.20;;;3.80;;
1533;SDS011;760;48.822;9.304;2023-01-29T08:02:12;6.27;;;4.40;;
1533;SDS011;760;48.822;9.304;2023-01-29T08:04:38;8.23;;;3.57;;
1533;SDS011;760;48.822;9.304;2023-01-29T08:07:03;6.53;;;4.20;;
1533;SDS011;760;48.822;9.304;2023-01-29T08:09:29;4.10;;;3.73;;
1533;SDS011;760;48.822;9.304;2023-01-29T08:11:55;3.25;;;2.95;;
1533;SDS011;760;48.822;9.304;2023-01-29T08:14:22;5.70;;;3.95;;
1533;SDS011;760;48.822;9.304;2023-01-29T08:16:48;6.82;;;4.32;;
1533;SDS011;760;48.822;9.304;2023-01-29T08:19:14;3.80;;;3.50;;
1533;SDS011;760;48.822;9.304;2023-01-29T08:21:40;4.40;;;3.47;;
1533;SDS011;760;48.822;9.304;2023-01-29T08:24:06;6.80;;;4.40;;
1533;SDS011;760;48.822;9.304;2023-01-29T08:26:31;4.40;;;3.93;;
1533;SDS011;760;48.822;9.304;2023-01-29T08:28:57;6.20;;;5.40;;
1533;SDS011;760;48.822;9.304;2023-01-29T08:31:23;5.57;;;4.10;;
1533;SDS011;760;48.822;9.304;2023-01-29T08:33:48;4.67;;;4.27;;
1533;SDS011;760;48.822;9.304;2023-01-29T08:36:14;3.83;;;3.53;;
1533;SDS011;760;48.822;9.304;2023-01-29T08:38:40;5.37;;;3.50;;
1533;SDS011;760;48.822;9.304;2023-01-29T08:41:06;3.80;;;3.40;;
1533;SDS011;760;48.822;9.304;2023-01-29T08:43:32;4.88;;;3.65;;
1533;SDS011;760;48.822;9.304;2023-01-29T08:45:59;4.85;;;4.32;;
1533;SDS011;760;48.822;9.304;2023-01-29T08:48:24;4.50;;;4.07;;
1533;SDS011;760;48.822;9.304;2023-01-29T08:50:50;4.40;;;3.80;;
1533;SDS011;760;48.822;9.304;2023-01-29T08:53:16;5.27;;;4.17;;
1533;SDS011;760;48.822;9.304;2023-01-29T08:55:43;5.10;;;4.22;;
1533;SDS011;760;48.822;9.304;2023-01-29T08:58:10;6.53;;;4.25;;
1533;SDS011;760;48.822;9.304;2023-01-29T09:00:36;3.80;;;3.50;;
1533;SDS011;760;48.822;9.304;2023-01-29T09:03:02;3.22;;;2.80;;
1533;SDS011;760;48.822;9.304;2023-01-29T09:05:28;5.90;;;4.15;;
1533;SDS011;760;48.822;9.304;2023-01-29T09:07:57;4.47;;;4.07;;
1533;SDS011;760;48.822;9.304;2023-01-29T09:10:23;5.53;;;3.88;;
1533;SDS011;760;48.822;9.304;2023-01-29T09:12:49;4.38;;;3.97;;
1533;SDS011;760;48.822;9.304;2023-01-29T09:15:16;4.00;;;3.70;;
1533;SDS011;760;48.822;9.304;2023-01-29T09:17:42;5.72;;;3.65;;
1533;SDS011;760;48.822;9.304;2023-01-29T09:20:08;2.90;;;2.70;;
1533;SDS011;760;48.822;9.304;2023-01-29T09:22:34;4.93;;;4.60;;
1533;SDS011;760;48.822;9.304;2023-01-29T09:25:00;5.80;;;4.10;;
1533;SDS011;760;48.822;9.304;2023-01-29T09:27:25;4.60;;;3.33;;
1533;SDS011;760;48.822;9.304;2023-01-29T09:29:51;4.10;;;3.43;;
1533;SDS011;760;48.822;9.304;2023-01-29T09:32:16;4.73;;;4.27;;
1533;SDS011;760;48.822;9.304;2023-01-29T09:34:42;4.40;;;3.23;;
1533;SDS011;760;48.822;9.304;2023-01-29T09:37:08;4.03;;;3.53;;
1533;SDS011;760;48.822;9.304;2023-01-29T09:39:33;3.40;;;3.20;;
1533;SDS011;760;48.822;9.304;2023-01-29T09:42:04;5.07;;;3.57;;
1533;SDS011;760;48.822;9.304;2023-01-29T09:44:45;4.32;;;3.83;;
1533;SDS011;760;48.822;9.304;2023-01-29T09:47:13;7.57;;;5.32;;
1533;SDS011;760;48.822;9.304;2023-01-29T09:49:48;4.22;;;3.83;;
1533;SDS011;760;48.822;9.304;2023-01-29T09:57:51;5.60;;;4.55;;
1533;SDS011;760;48.822;9.304;2023-01-29T10:00:50;6.32;;;3.85;;
1533;SDS011;760;48.822;9.304;2023-01-29T10:21:05;7.82;;;4.70;;
1533;SDS011;760;48.822;9.304;2023-01-29T10:23:52;6.10;;;4.38;;
1533;SDS011;760;48.822;9.304;2023-01-29T10:26:28;6.85;;;6.25;;
1533;SDS011;760;48.822;9.304;2023-01-29T10:28:59;4.40;;;4.00;;
1533;SDS011;760;48.822;9.304;2023-01-29T10:31:31;5.15;;;4.75;;
1533;SDS011;760;48.822;9.304;2023-01-29T10:34:06;4.75;;;4.22;;
1533;SDS011;760;48.822;9.304;2023-01-29T10:36:48;5.85;;;4.88;;
1533;SDS011;760;48.822;9.304;2023-01-29T10:55:58;5.40;;;4.30;;
1533;SDS011;760;48.822;9.304;2023-01-29T10:58:49;4.95;;;4.28;;
1533;SDS011;760;48.822;9.304;2023-01-29T11:01:20;6.63;;;4.40;;
1533;SDS011;760;48.822;9.304;2023-01-29T11:03:51;6.75;;;5.32;;
1533;SDS011;760;48.822;9.304;2023-01-29T11:06:31;5.95;;;5.45;;
1533;SDS011;760;48.822;9.304;2023-01-29T11:11:46;6.05;;;5.47;;
1533;SDS011;760;48.822;9.304;2023-01-29T11:14:23;6.05;;;5.45;;
1533;SDS011;760;48.822;9.304;2023-01-29T11:16:52;5.95;;;4.80;;
1533;SDS011;760;48.822;9.304;2023-01-29T11:19:34;5.90;;;5.30;;
1533;SDS011;760;48.822;9.304;2023-01-29T11:22:00;5.50;;;4.90;;
1533;SDS011;760;48.822;9.304;2023-01-29T11:24:28;4.43;;;3.67;;
1533;SDS011;760;48.822;9.304;2023-01-29T11:26:55;4.45;;;3.78;;
1533;SDS011;760;48.822;9.304;2023-01-29T11:31:51;4.82;;;4.32;;
1533;SDS011;760;48.822;9.304;2023-01-29T11:34:21;5.10;;;4.60;;
1533;SDS011;760;48.822;9.304;2023-01-29T11:37:02;8.35;;;4.65;;
1533;SDS011;760;48.822;9.304;2023-01-29T11:39:30;8.48;;;6.43;;
1533;SDS011;760;48.822;9.304;2023-01-29T11:44:34;5.72;;;4.63;;
1533;SDS011;760;48.822;9.304;2023-01-29T11:47:14;5.30;;;4.22;;
1533;SDS011;760;48.822;9.304;2023-01-29T11:49:49;6.20;;;5.57;;
1533;SDS011;760;48.822;9.304;2023-01-29T11:52:18;5.43;;;4.80;;
1533;SDS011;760;48.822;9.304;2023-01-29T11:57:17;6.80;;;5.37;;
1533;SDS011;760;48.822;9.304;2023-01-29T12:00:12;5.32;;;4.82;;
1533;SDS011;760;48.822;9.304;2023-01-29T12:02:52;6.13;;;5.30;;
1533;SDS011;760;48.822;9.304;2023-01-29T12:05:24;8.45;;;6.78;;
1533;SDS011;760;48.822;9.304;2023-01-29T12:07:55;8.25;;;4.90;;
1533;SDS011;760;48.822;9.304;2023-01-29T12:10:37;5.55;;;4.93;;
1533;SDS011;760;48.822;9.304;2023-01-29T12:15:38;5.40;;;4.88;;
1533;SDS011;760;48.822;9.304;2023-01-29T12:20:49;7.97;;;5.72;;
1533;SDS011;760;48.822;9.304;2023-01-29T12:26:11;6.22;;;4.20;;
1533;SDS011;760;48.822;9.304;2023-01-29T12:31:23;6.93;;;5.68;;
1533;SDS011;760;48.822;9.304;2023-01-29T12:34:19;6.50;;;5.65;;
1533;SDS011;760;48.822;9.304;2023-01-29T12:36:51;8.15;;;5.25;;
1533;SDS011;760;48.822;9.304;2023-01-29T12:39:23;5.25;;;4.30;;
1533;SDS011;760;48.822;9.304;2023-01-29T12:41:51;5.87;;;4.73;;
1533;SDS011;760;48.822;9.304;2023-01-29T12:44:27;5.43;;;4.88;;
1533;SDS011;760;48.822;9.304;2023-01-29T12:46:58;5.15;;;4.65;;
1533;SDS011;760;48.822;9.304;2023-01-29T12:49:27;5.75;;;5.15;;
1533;SDS011;760;48.822;9.304;2023-01-29T12:52:02;6.22;;;5.60;;
1533;SDS011;760;48.822;9.304;2023-01-29T12:54:36;6.53;;;5.25;;
1533;SDS011;760;48.822;9.304;2023-01-29T13:00:01;7.47;;;4.93;;
1533;SDS011;760;48.822;9.304;2023-01-29T13:02:38;5.70;;;4.95;;
1533;SDS011;760;48.822;9.304;2023-01-29T13:05:22;6.55;;;4.75;;
1533;SDS011;760;48.822;9.304;2023-01-29T13:08:13;4.85;;;3.65;;
1533;SDS011;760;48.822;9.304;2023-01-29T13:10:42;5.55;;;4.90;;
1533;SDS011;760;48.822;9.304;2023-01-29T13:13:27;7.10;;;5.28;;
1533;SDS011;760;48.822;9.304;2023-01-29T13:15:55;7.35;;;5.70;;
1533;SDS011;760;48.822;9.304;2023-01-29T13:21:05;5.45;;;4.63;;
1533;SDS011;760;48.822;9.304;2023-01-29T13:23:46;7.05;;;5.55;;
1533;SDS011;760;48.822;9.304;2023-01-29T13:26:18;6.10;;;4.93;;
1533;SDS011;760;48.822;9.304;2023-01-29T13:28:45;7.50;;;5.45;;
1533;SDS011;760;48.822;9.304;2023-01-29T13:37:08;7.63;;;5.82;;
1533;SDS011;760;48.822;9.304;2023-01-29T13:39:44;8.18;;;5.93;;
1533;SDS011;760;48.822;9.304;2023-01-29T13:42:46;8.30;;;6.20;;
1533;SDS011;760;48.822;9.304;2023-01-29T13:45:18;4.38;;;3.92;;
1533;SDS011;760;48.822;9.304;2023-01-29T13:47:51;5.93;;;5.32;;
1533;SDS011;760;48.822;9.304;2023-01-29T13:52:53;4.72;;;3.78;;
1533;SDS011;760;48.822;9.304;2023-01-29T13:55:23;5.97;;;5.32;;
1533;SDS011;760;48.822;9.304;2023-01-29T13:57:56;5.45;;;4.53;;
1533;SDS011;760;48.822;9.304;2023-01-29T14:05:39;11.30;;;5.13;;
1533;SDS011;760;48.822;9.304;2023-01-29T14:10:34;6.53;;;5.10;;
1533;SDS011;760;48.822;9.304;2023-01-29T14:18:25;5.40;;;4.70;;
1533;SDS011;760;48.822;9.304;2023-01-29T14:20:55;5.88;;;4.63;;
1533;SDS011;760;48.822;9.304;2023-01-29T14:23:33;7.70;;;4.57;;
1533;SDS011;760;48.822;9.304;2023-01-29T14:26:16;5.70;;;4.60;;
1533;SDS011;760;48.822;9.304;2023-01-29T14:29:22;5.32;;;4.45;;
1533;SDS011;760;48.822;9.304;2023-01-29T14:34:40;7.65;;;4.43;;
1533;SDS011;760;48.822;9.304;2023-01-29T14:45:38;5.80;;;5.20;;
1533;SDS011;760;48.822;9.304;2023-01-29T14:56:10;6.18;;;4.70;;
1533;SDS011;760;48.822;9.304;2023-01-29T14:58:46;6.47;;;5.43;;
1533;SDS011;760;48.822;9.304;2023-01-29T15:03:52;7.13;;;5.15;;
1533;SDS011;760;48.822;9.304;2023-01-29T15:06:31;6.30;;;5.28;;
1533;SDS011;760;48.822;9.304;2023-01-29T15:09:17;8.05;;;5.15;;
1533;SDS011;760;48.822;9.304;2023-01-29T15:11:56;6.75;;;4.80;;
1533;SDS011;760;48.822;9.304;2023-01-29T15:15:09;6.18;;;5.32;;
1533;SDS011;760;48.822;9.304;2023-01-29T15:17:54;9.93;;;7.30;;
1533;SDS011;760;48.822;9.304;2023-01-29T15:20:32;8.88;;;6.45;;
1533;SDS011;760;48.822;9.304;2023-01-29T15:23:00;9.82;;;6.30;;
1533;SDS011;760;48.822;9.304;2023-01-29T15:25:29;8.82;;;6.00;;
1533;SDS011;760;48.822;9.304;2023-01-29T15:27:59;5.97;;;5.32;;
1533;SDS011;760;48.822;9.304;2023-01-29T15:30:30;8.30;;;4.82;;
1533;SDS011;760;48.822;9.304;2023-01-29T15:32:57;8.10;;;5.80;;
1533;SDS011;760;48.822;9.304;2023-01-29T15:35:28;7.38;;;4.95;;
1533;SDS011;760;48.822;9.304;2023-01-29T15:38:11;6.15;;;5.55;;
1533;SDS011;760;48.822;9.304;2023-01-29T15:40:38;6.28;;;5.47;;
1533;SDS011;760;48.822;9.304;2023-01-29T15:43:16;8.97;;;5.03;;
1533;SDS011;760;48.822;9.304;2023-01-29T15:45:48;6.80;;;5.72;;
1533;SDS011;760;48.822;9.304;2023-01-29T15:48:21;8.38;;;5.78;;
1533;SDS011;760;48.822;9.304;2023-01-29T15:51:00;8.38;;;5.88;;
1533;SDS011;760;48.822;9.304;2023-01-29T15:53:34;6.72;;;5.55;;
1533;SDS011;760;48.822;9.304;2023-01-29T15:56:14;9.25;;;5.70;;
1533;SDS011;760;48.822;9.304;2023-01-29T15:58:45;8.32;;;5.93;;
1533;SDS011;760;48.822;9.304;2023-01-29T16:01:12;5.95;;;5.22;;
1533;SDS011;760;48.822;9.304;2023-01-29T16:03:38;6.47;;;5.83;;
1533;SDS011;760;48.822;9.304;2023-01-29T16:06:05;7.45;;;6.10;;
1533;SDS011;760;48.822;9.304;2023-01-29T16:08:32;6.32;;;5.82;;
1533;SDS011;760;48.822;9.304;2023-01-29T16:10:59;6.10;;;5.50;;
1533;SDS011;760;48.822;9.304;2023-01-29T16:13:29;4.75;;;4.28;;
1533;SDS011;760;48.822;9.304;2023-01-29T16:18:39;7.03;;;4.00;;
1533;SDS011;760;48.822;9.304;2023-01-29T16:21:14;8.45;;;5.90;;
1533;SDS011;760;48.822;9.304;2023-01-29T16:23:53;6.13;;;4.75;;
1533;SDS011;760;48.822;9.304;2023-01-29T16:26:30;8.00;;;4.65;;
1533;SDS011;760;48.822;9.304;2023-01-29T16:29:02;5.78;;;5.28;;
1533;SDS011;760;48.822;9.304;2023-01-29T16:31:30;10.50;;;4.68;;
1533;SDS011;760;48.822;9.304;2023-01-29T16:33:57;6.22;;;5.25;;
1533;SDS011;760;48.822;9.304;2023-01-29T16:36:29;9.52;;;5.60;;
1533;SDS011;760;48.822;9.304;2023-01-29T16:38:56;9.53;;;5.10;;
1533;SDS011;760;48.822;9.304;2023-01-29T16:46:32;5.70;;;4.70;;
1533;SDS011;760;48.822;9.304;2023-01-29T16:51:50;7.47;;;4.68;;
1533;SDS011;760;48.822;9.304;2023-01-29T16:54:16;10.82;;;6.65;;
1533;SDS011;760;48.822;9.304;2023-01-29T16:56:47;9.90;;;5.93;;
1533;SDS011;760;48.822;9.304;2023-01-29T16:59:17;10.60;;;5.80;;
1533;SDS011;760;48.822;9.304;2023-01-29T17:01:50;12.82;;;6.05;;
1533;SDS011;760;48.822;9.304;2023-01-29T17:04:18;7.57;;;5.55;;
1533;SDS011;760;48.822;9.304;2023-01-29T17:06:45;14.77;;;8.15;;
1533;SDS011;760;48.822;9.304;2023-01-29T17:09:20;11.10;;;6.50;;
1533;SDS011;760;48.822;9.304;2023-01-29T17:12:05;8.00;;;5.00;;
1533;SDS011;760;48.822;9.304;2023-01-29T17:14:39;10.50;;;6.80;;
1533;SDS011;760;48.822;9.304;2023-01-29T17:17:15;6.85;;;5.68;;
1533;SDS011;760;48.822;9.304;2023-01-29T17:19:42;8.57;;;5.85;;
1533;SDS011;760;48.822;9.304;2023-01-29T17:22:08;11.73;;;9.00;;
1533;SDS011;760;48.822;9.304;2023-01-29T17:24:38;8.80;;;7.65;;
1533;SDS011;760;48.822;9.304;2023-01-29T17:27:05;9.25;;;7.75;;
1533;SDS011;760;48.822;9.304;2023-01-29T17:29:30;12.43;;;6.30;;
1533;SDS011;760;48.822;9.304;2023-01-29T17:31:57;11.02;;;7.85;;
1533;SDS011;760;48.822;9.304;2023-01-29T17:34:24;7.18;;;5.78;;
1533;SDS011;760;48.822;9.304;2023-01-29T17:36:50;8.10;;;6.05;;
1533;SDS011;760;48.822;9.304;2023-01-29T17:41:44;10.27;;;6.38;;
1533;SDS011;760;48.822;9.304;2023-01-29T17:44:13;8.40;;;6.35;;
1533;SDS011;760;48.822;9.304;2023-01-29T17:46:39;7.60;;;5.80;;
1533;SDS011;760;48.822;9.304;2023-01-29T17:49:09;10.83;;;7.30;;
1533;SDS011;760;48.822;9.304;2023-01-29T17:51:41;7.32;;;6.53;;
1533;SDS011;760;48.822;9.304;2023-01-29T17:54:07;6.60;;;4.97;;
1533;SDS011;760;48.822;9.304;2023-01-29T17:56:32;9.60;;;5.83;;
1533;SDS011;760;48.822;9.304;2023-01-29T17:58:58;9.37;;;6.77;;
1533;SDS011;760;48.822;9.304;2023-01-29T18:01:24;10.00;;;5.97;;
1533;SDS011;760;48.822;9.304;2023-01-29T18:03:50;10.33;;;6.60;;
1533;SDS011;760;48.822;9.304;2023-01-29T18:06:19;6.60;;;4.67;;
1533;SDS011;760;48.822;9.304;2023-01-29T18:08:51;5.78;;;4.63;;
1533;SDS011;760;48.822;9.304;2023-01-29T18:11:17;9.53;;;6.17;;
1533;SDS011;760;48.822;9.304;2023-01-29T18:13:42;7.47;;;4.70;;
1533;SDS011;760;48.822;9.304;2023-01-29T18:16:08;11.47;;;7.47;;
1533;SDS011;760;48.822;9.304;2023-01-29T18:18:33;11.90;;;7.00;;
1533;SDS011;760;48.822;9.304;2023-01-29T18:20:59;18.90;;;13.00;;
1533;SDS011;760;48.822;9.304;2023-01-29T18:23:25;17.83;;;8.80;;
1533;SDS011;760;48.822;9.304;2023-01-29T18:25:50;19.23;;;11.73;;
1533;SDS011;760;48.822;9.304;2023-01-29T18:28:16;17.77;;;8.52;;
1533;SDS011;760;48.822;9.304;2023-01-29T18:30:43;12.80;;;9.63;;
1533;SDS011;760;48.822;9.304;2023-01-29T18:33:11;15.15;;;8.50;;
1533;SDS011;760;48.822;9.304;2023-01-29T18:35:37;14.32;;;7.50;;
1533;SDS011;760;48.822;9.304;2023-01-29T18:38:02;11.67;;;8.63;;
1533;SDS011;760;48.822;9.304;2023-01-29T18:40:29;15.73;;;9.20;;
1533;SDS011;760;48.822;9.304;2023-01-29T18:42:55;10.60;;;8.73;;
1533;SDS011;760;48.822;9.304;2023-01-29T18:45:23;8.30;;;6.88;;
1533;SDS011;760;48.822;9.304;2023-01-29T18:47:49;11.17;;;7.43;;
1533;SDS011;760;48.822;9.304;2023-01-29T18:50:14;10.00;;;7.10;;
1533;SDS011;760;48.822;9.304;2023-01-29T18:52:42;15.13;;;6.37;;
1533;SDS011;760;48.822;9.304;2023-01-29T18:55:08;16.70;;;7.97;;
1533;SDS011;760;48.822;9.304;2023-01-29T18:57:34;12.13;;;8.07;;
1533;SDS011;760;48.822;9.304;2023-01-29T19:00:00;8.00;;;6.43;;
1533;SDS011;760;48.822;9.304;2023-01-29T19:02:26;10.93;;;7.57;;
1533;SDS011;760;48.822;9.304;2023-01-29T19:04:52;10.83;;;7.63;;
1533;SDS011;760;48.822;9.304;2023-01-29T19:07:18;10.63;;;7.40;;
1533;SDS011;760;48.822;9.304;2023-01-29T19:09:43;9.80;;;6.20;;
1533;SDS011;760;48.822;9.304;2023-01-29T19:12:10;12.90;;;8.02;;
1533;SDS011;760;48.822;9.304;2023-01-29T19:14:36;10.35;;;8.00;;
1533;SDS011;760;48.822;9.304;2023-01-29T19:17:02;10.47;;;6.80;;
1533;SDS011;760;48.822;9.304;2023-01-29T19:19:28;18.83;;;9.60;;
1533;SDS011;760;48.822;9.304;2023-01-29T19:21:54;21.58;;;9.10;;
1533;SDS011;760;48.822;9.304;2023-01-29T19:24:20;12.90;;;9.03;;
1533;SDS011;760;48.822;9.304;2023-01-29T19:26:47;13.43;;;9.15;;
1533;SDS011;760;48.822;9.304;2023-01-29T19:29:12;12.17;;;9.27;;
1533;SDS011;760;48.822;9.304;2023-01-29T19:31:41;15.02;;;9.43;;
1533;SDS011;760;48.822;9.304;2023-01-29T19:34:07;11.47;;;9.07;;
1533;SDS011;760;48.822;9.304;2023-01-29T19:36:33;16.73;;;9.90;;
1533;SDS011;760;48.822;9.304;2023-01-29T19:38:59;11.82;;;9.57;;
1533;SDS011;760;48.822;9.304;2023-01-29T19:41:25;13.97;;;10.70;;
1533;SDS011;760;48.822;9.304;2023-01-29T19:43:51;18.97;;;12.47;;
1533;SDS011;760;48.822;9.304;2023-01-29T19:46:18;12.43;;;9.93;;
1533;SDS011;760;48.822;9.304;2023-01-29T19:48:44;15.33;;;9.23;;
1533;SDS011;760;48.822;9.304;2023-01-29T19:51:10;9.82;;;8.82;;
1533;SDS011;760;48.822;9.304;2023-01-29T19:53:37;12.57;;;9.75;;
1533;SDS011;760;48.822;9.304;2023-01-29T19:56:05;12.95;;;8.40;;
1533;SDS011;760;48.822;9.304;2023-01-29T19:58:32;17.20;;;10.52;;
1533;SDS011;760;48.822;9.304;2023-01-29T20:00:59;12.98;;;8.45;;
1533;SDS011;760;48.822;9.304;2023-01-29T20:03:28;11.48;;;10.25;;
1533;SDS011;760;48.822;9.304;2023-01-29T20:05:55;14.40;;;10.63;;
1533;SDS011;760;48.822;9.304;2023-01-29T20:08:28;18.23;;;9.20;;
1533;SDS011;760;48.822;9.304;2023-01-29T20:10:54;15.13;;;9.57;;
1533;SDS011;760;48.822;9.304;2023-01-29T20:13:20;15.40;;;10.53;;
1533;SDS011;760;48.822;9.304;2023-01-29T20:15:46;13.80;;;10.87;;
1533;SDS011;760;48.822;9.304;2023-01-29T20:18:13;18.95;;;10.20;;
1533;SDS011;760;48.822;9.304;2023-01-29T20:20:47;12.23;;;9.63;;
1533;SDS011;760;48.822;9.304;2023-01-29T20:23:14;13.00;;;8.95;;
1533;SDS011;760;48.822;9.304;2023-01-29T20:25:41;9.88;;;7.70;;
1533;SDS011;760;48.822;9.304;2023-01-29T20:28:08;12.33;;;6.40;;
1533;SDS011;760;48.822;9.304;2023-01-29T20:30:36;12.82;;;9.23;;
1533;SDS011;760;48.822;9.304;2023-01-29T20:33:02;18.33;;;8.63;;
1533;SDS011;760;48.822;9.304;2023-01-29T20:35:29;13.55;;;9.07;;
1533;SDS011;760;48.822;9.304;2023-01-29T20:37:56;15.63;;;10.60;;
1533;SDS011;760;48.822;9.304;2023-01-29T20:40:22;14.82;;;8.93;;
1533;SDS011;760;48.822;9.304;2023-01-29T20:42:49;18.75;;;9.90;;
1533;SDS011;760;48.822;9.304;2023-01-29T20:45:15;14.32;;;8.93;;
1533;SDS011;760;48.822;9.304;2023-01-29T20:47:41;9.30;;;7.00;;
1533;SDS011;760;48.822;9.304;2023-01-29T20:50:10;15.65;;;8.13;;
1533;SDS011;760;48.822;9.304;2023-01-29T20:52:38;13.05;;;9.07;;
1533;SDS011;760;48.822;9.304;2023-01-29T20:55:05;16.70;;;7.60;;
1533;SDS011;760;48.822;9.304;2023-01-29T20:57:33;13.30;;;9.15;;
1533;SDS011;760;48.822;9.304;2023-01-29T20:59:58;15.52;;;8.95;;
1533;SDS011;760;48.822;9.304;2023-01-29T21:02:24;14.57;;;10.67;;
1533;SDS011;760;48.822;9.304;2023-01-29T21:04:50;12.50;;;9.23;;
1533;SDS011;760;48.822;9.304;2023-01-29T21:07:16;13.87;;;8.37;;
1533;SDS011;760;48.822;9.304;2023-01-29T21:09:41;13.77;;;7.60;;
1533;SDS011;760;48.822;9.304;2023-01-29T21:12:07;13.90;;;7.23;;
1533;SDS011;760;48.822;9.304;2023-01-29T21:14:33;16.02;;;9.68;;
1533;SDS011;760;48.822;9.304;2023-01-29T21:16:59;14.93;;;7.27;;
1533;SDS011;760;48.822;9.304;2023-01-29T21:19:25;8.27;;;5.75;;
1533;SDS011;760;48.822;9.304;2023-01-29T21:21:51;13.90;;;8.57;;
1533;SDS011;760;48.822;9.304;2023-01-29T21:24:18;12.00;;;8.02;;
1533;SDS011;760;48.822;9.304;2023-01-29T21:26:44;8.90;;;8.00;;
1533;SDS011;760;48.822;9.304;2023-01-29T21:29:10;10.68;;;6.60;;
1533;SDS011;760;48.822;9.304;2023-01-29T21:31:37;16.42;;;9.32;;
1533;SDS011;760;48.822;9.304;2023-01-29T21:34:02;16.40;;;9.83;;
1533;SDS011;760;48.822;9.304;2023-01-29T21:36:29;17.17;;;7.63;;
1533;SDS011;760;48.822;9.304;2023-01-29T21:38:55;8.55;;;7.13;;
1533;SDS011;760;48.822;9.304;2023-01-29T21:41:21;11.70;;;8.23;;
1533;SDS011;760;48.822;9.304;2023-01-29T21:44:07;9.02;;;7.35;;
1533;SDS011;760;48.822;9.304;2023-01-29T21:46:32;9.40;;;5.77;;
1533;SDS011;760;48.822;9.304;2023-01-29T21:48:58;12.30;;;7.70;;
1533;SDS011;760;48.822;9.304;2023-01-29T21:51:23;12.17;;;6.53;;
1533;SDS011;760;48.822;9.304;2023-01-29T21:53:49;9.83;;;8.13;;
1533;SDS011;760;48.822;9.304;2023-01-29T21:56:14;10.83;;;6.73;;
1533;SDS011;760;48.822;9.304;2023-01-29T21:58:45;12.93;;;7.15;;
1533;SDS011;760;48.822;9.304;2023-01-29T22:01:12;8.57;;;6.65;;
1533;SDS011;760;48.822;9.304;2023-01-29T22:03:37;17.17;;;9.20;;
1533;SDS011;760;48.822;9.304;2023-01-29T22:06:03;11.93;;;6.70;;
1533;SDS011;760;48.822;9.304;2023-01-29T22:08:29;16.63;;;8.77;;
1533;SDS011;760;48.822;9.304;2023-01-29T22:10:56;11.13;;;7.53;;
1533;SDS011;760;48.822;9.304;2023-01-29T22:13:21;7.90;;;6.00;;
1533;SDS011;760;48.822;9.304;2023-01-29T22:15:47;13.90;;;6.50;;
1533;SDS011;760;48.822;9.304;2023-01-29T22:18:12;15.60;;;7.80;;
1533;SDS011;760;48.822;9.304;2023-01-29T22:20:38;11.03;;;7.97;;
1533;SDS011;760;48.822;9.304;2023-01-29T22:23:04;11.67;;;7.80;;
1533;SDS011;760;48.822;9.304;2023-01-29T22:25:29;10.33;;;6.60;;
1533;SDS011;760;48.822;9.304;2023-01-29T22:27:56;11.30;;;6.20;;
1533;SDS011;760;48.822;9.304;2023-01-29T22:30:22;12.95;;;6.80;;
1533;SDS011;760;48.822;9.304;2023-01-29T22:32:48;11.82;;;5.75;;
1533;SDS011;760;48.822;9.304;2023-01-29T22:35:14;13.30;;;7.88;;
1533;SDS011;760;48.822;9.304;2023-01-29T22:37:40;13.45;;;7.10;;
1533;SDS011;760;48.822;9.304;2023-01-29T22:40:06;10.60;;;6.10;;
1533;SDS011;760;48.822;9.304;2023-01-29T22:42:32;14.70;;;9.25;;
1533;SDS011;760;48.822;9.304;2023-01-29T22:44:58;7.37;;;6.07;;